createdAt,value
2023-03-26T00:01:46.484Z,0.97
2023-03-26T00:04:14.589Z,0.73
2023-03-26T00:06:42.418Z,0.83
2023-03-26T00:09:13.076Z,1.10
2023-03-26T00:11:43.400Z,0.80
2023-03-26T00:14:14.016Z,1.20
2023-03-26T00:16:42.924Z,0.80
2023-03-26T00:19:10.966Z,0.90
2023-03-26T00:21:38.766Z,0.70
2023-03-26T00:24:09.922Z,1.00
2023-03-26T00:26:38.828Z,0.70
2023-03-26T00:29:09.698Z,0.90
2023-03-26T00:31:39.652Z,1.00
2023-03-26T00:34:08.366Z,0.90
2023-03-26T00:36:37.159Z,0.73
2023-03-26T00:39:06.355Z,0.83
2023-03-26T00:41:37.264Z,0.90
2023-03-26T00:44:06.739Z,1.10
2023-03-26T00:46:34.634Z,0.70
2023-03-26T00:49:03.911Z,1.50
2023-03-26T00:51:33.810Z,0.67
2023-03-26T00:54:01.645Z,0.70
2023-03-26T00:56:29.523Z,0.90
2023-03-26T00:58:57.553Z,0.87
2023-03-26T01:01:29.323Z,0.80
2023-03-26T01:04:13.024Z,0.80
2023-03-26T01:06:43.241Z,1.03
2023-03-26T01:09:15.885Z,0.80
2023-03-26T01:11:44.742Z,0.80
2023-03-26T01:14:16.314Z,1.00
2023-03-26T01:16:50.096Z,1.00
2023-03-26T01:19:24.741Z,0.80
2023-03-26T01:21:52.973Z,1.00
2023-03-26T01:24:22.914Z,1.00
2023-03-26T01:27:04.269Z,0.83
2023-03-26T01:29:39.233Z,0.83
2023-03-26T01:32:19.695Z,1.33
2023-03-26T01:35:02.759Z,0.97
2023-03-26T01:37:37.335Z,1.17
2023-03-26T01:40:15.042Z,1.00
2023-03-26T01:42:48.408Z,0.87
2023-03-26T01:45:18.928Z,0.90
2023-03-26T01:47:48.105Z,0.90
2023-03-26T01:50:16.072Z,1.13
2023-03-26T01:52:43.858Z,1.00
2023-03-26T01:55:14.296Z,1.23
2023-03-26T01:57:53.179Z,0.93
2023-03-26T02:00:27.366Z,0.83
2023-03-26T02:03:20.463Z,0.80
2023-03-26T02:05:54.054Z,0.70
2023-03-26T02:08:25.615Z,1.50
2023-03-26T02:10:58.454Z,0.80
2023-03-26T02:13:27.192Z,1.10
2023-03-26T02:16:00.504Z,1.03
2023-03-26T02:18:36.146Z,1.13
2023-03-26T02:21:05.631Z,0.97
2023-03-26T02:23:35.807Z,0.87
2023-03-26T02:26:07.587Z,1.00
2023-03-26T02:28:35.975Z,0.70
2023-03-26T02:31:03.866Z,1.30
2023-03-26T02:33:32.589Z,1.10
2023-03-26T02:36:02.002Z,1.00
2023-03-26T02:38:33.606Z,1.00
2023-03-26T02:41:01.457Z,1.90
2023-03-26T02:43:30.755Z,1.23
2023-03-26T02:45:59.112Z,0.87
2023-03-26T02:48:27.124Z,1.20
2023-03-26T02:50:55.105Z,1.50
2023-03-26T02:53:23.853Z,1.30
2023-03-26T02:55:52.233Z,1.10
2023-03-26T02:58:20.190Z,0.80
2023-03-26T03:00:50.849Z,0.90
2023-03-26T03:03:18.756Z,0.97
2023-03-26T03:05:46.611Z,1.37
2023-03-26T03:08:14.406Z,1.23
2023-03-26T03:10:42.373Z,0.80
2023-03-26T03:13:10.352Z,1.70
2023-03-26T03:15:38.120Z,2.30
2023-03-26T03:18:07.726Z,1.10
2023-03-26T03:20:35.715Z,2.13
2023-03-26T03:23:03.683Z,1.20
2023-03-26T03:25:32.462Z,1.23
2023-03-26T03:28:00.193Z,1.13
2023-03-26T03:30:28.148Z,0.80
2023-03-26T03:32:58.347Z,1.30
2023-03-26T03:35:29.485Z,1.20
2023-03-26T03:37:57.359Z,2.20
2023-03-26T03:40:25.207Z,1.50
2023-03-26T03:42:53.741Z,0.93
2023-03-26T03:45:21.542Z,1.20
2023-03-26T03:47:49.464Z,1.20
2023-03-26T03:50:17.395Z,1.07
2023-03-26T03:52:46.528Z,1.10
2023-03-26T03:55:15.172Z,0.90
2023-03-26T03:57:43.042Z,1.10
2023-03-26T04:00:12.991Z,1.27
2023-03-26T04:02:42.798Z,1.17
2023-03-26T04:05:11.623Z,1.33
2023-03-26T04:07:40.474Z,0.80
2023-03-26T04:10:10.779Z,1.27
2023-03-26T04:12:38.599Z,1.17
2023-03-26T04:15:07.529Z,0.97
2023-03-26T04:20:16.324Z,0.80
2023-03-26T04:22:44.571Z,1.07
2023-03-26T04:25:13.498Z,1.27
2023-03-26T04:27:43.877Z,1.50
2023-03-26T04:30:15.488Z,1.20
2023-03-26T04:32:44.531Z,1.70
2023-03-26T04:35:15.060Z,1.10
2023-03-26T04:37:45.917Z,1.27
2023-03-26T04:40:17.135Z,1.33
2023-03-26T04:42:46.025Z,1.00
2023-03-26T04:45:15.310Z,1.20
2023-03-26T04:47:43.215Z,0.90
2023-03-26T04:50:12.303Z,1.03
2023-03-26T04:52:40.714Z,0.80
2023-03-26T04:55:25.697Z,1.20
2023-03-26T04:57:56.679Z,1.30
2023-03-26T05:00:25.328Z,1.10
2023-03-26T05:02:58.243Z,0.80
2023-03-26T05:05:27.889Z,1.37
2023-03-26T05:07:56.301Z,1.77
2023-03-26T05:10:25.443Z,0.90
2023-03-26T05:12:53.238Z,1.03
2023-03-26T05:15:21.074Z,1.00
2023-03-26T05:17:48.975Z,1.33
2023-03-26T05:20:21.537Z,1.27
2023-03-26T05:22:50.202Z,0.80
2023-03-26T05:25:18.282Z,1.20
2023-03-26T05:27:48.098Z,1.00
2023-03-26T05:30:18.193Z,1.00
2023-03-26T05:32:47.223Z,1.00
2023-03-26T05:35:16.927Z,1.00
2023-03-26T05:37:45.480Z,1.13
2023-03-26T05:40:15.067Z,0.80
2023-03-26T05:42:43.635Z,1.20
2023-03-26T05:45:15.381Z,0.83
2023-03-26T05:47:43.200Z,0.93
2023-03-26T05:50:11.924Z,1.20
2023-03-26T05:52:39.758Z,1.60
2023-03-26T05:55:09.040Z,1.93
2023-03-26T05:57:37.512Z,1.10
2023-03-26T06:00:08.766Z,1.20
2023-03-26T06:02:38.037Z,1.27
2023-03-26T06:05:07.698Z,1.50
2023-03-26T06:07:35.466Z,1.10
2023-03-26T06:10:03.465Z,1.57
2023-03-26T06:12:31.328Z,1.07
2023-03-26T06:14:59.118Z,1.20
2023-03-26T06:17:26.947Z,1.30
2023-03-26T06:19:56.104Z,0.83
2023-03-26T06:22:23.931Z,0.97
2023-03-26T06:24:52.745Z,1.13
2023-03-26T06:27:20.715Z,1.10
2023-03-26T06:29:49.012Z,1.03
2023-03-26T06:32:19.982Z,1.37
2023-03-26T06:34:48.224Z,1.40
2023-03-26T06:37:17.867Z,1.20
2023-03-26T06:39:45.883Z,1.00
2023-03-26T06:42:13.834Z,1.30
2023-03-26T06:44:41.639Z,1.37
2023-03-26T06:47:09.423Z,1.13
2023-03-26T06:49:38.005Z,0.93
2023-03-26T06:52:06.550Z,1.63
2023-03-26T06:54:35.695Z,2.03
2023-03-26T06:57:03.553Z,1.20
2023-03-26T06:59:31.620Z,1.30
2023-03-26T07:01:59.386Z,1.20
2023-03-26T07:04:27.303Z,1.10
2023-03-26T07:06:55.823Z,1.17
2023-03-26T07:09:23.776Z,1.40
2023-03-26T07:11:52.910Z,1.20
2023-03-26T07:14:20.776Z,1.50
2023-03-26T07:16:48.542Z,1.07
2023-03-26T07:19:16.312Z,1.50
2023-03-26T07:21:46.486Z,1.30
2023-03-26T07:24:15.433Z,1.40
2023-03-26T07:26:52.828Z,1.10
2023-03-26T07:29:34.866Z,1.80
2023-03-26T07:32:10.276Z,1.20
2023-03-26T07:34:47.666Z,1.30
2023-03-26T07:37:28.077Z,1.40
2023-03-26T07:40:02.445Z,1.30
2023-03-26T07:42:47.383Z,1.17
2023-03-26T07:45:25.715Z,1.47
2023-03-26T07:47:55.216Z,1.10
2023-03-26T07:50:25.360Z,1.10
2023-03-26T07:52:55.014Z,0.60
2023-03-26T07:55:23.245Z,1.40
2023-03-26T07:58:00.685Z,1.23
2023-03-26T08:00:35.911Z,0.93
2023-03-26T08:03:32.591Z,1.43
2023-03-26T08:06:08.470Z,1.43
2023-03-26T08:08:45.730Z,1.37
2023-03-26T08:11:28.778Z,1.30
2023-03-26T08:14:10.417Z,1.57
2023-03-26T08:16:45.903Z,1.57
2023-03-26T08:19:32.966Z,1.60
2023-03-26T08:22:08.987Z,1.40
2023-03-26T08:24:44.367Z,1.70
2023-03-26T08:27:21.333Z,0.80
2023-03-26T08:29:55.162Z,1.67
2023-03-26T08:32:26.673Z,1.03
2023-03-26T08:34:54.512Z,1.17
2023-03-26T08:37:22.887Z,1.70
2023-03-26T08:39:50.724Z,1.23
2023-03-26T08:42:55.594Z,1.90
2023-03-26T08:45:52.684Z,1.20
2023-03-26T08:48:57.192Z,1.47
2023-03-26T08:51:52.019Z,1.50
2023-03-26T08:54:50.195Z,1.07
2023-03-26T08:57:45.624Z,1.43
2023-03-26T09:00:46.669Z,1.10
2023-03-26T09:03:52.511Z,1.40
2023-03-26T09:06:54.720Z,1.20
2023-03-26T09:10:06.194Z,1.17
2023-03-26T09:13:10.781Z,1.20
2023-03-26T09:16:16.320Z,1.20
2023-03-26T09:19:24.876Z,1.57
2023-03-26T09:22:31.414Z,1.30
2023-03-26T09:25:22.963Z,2.20
2023-03-26T09:28:20.613Z,1.40
2023-03-26T09:31:26.835Z,1.50
2023-03-26T09:34:05.611Z,1.10
2023-03-26T09:36:49.414Z,1.10
2023-03-26T09:39:31.224Z,1.10
2023-03-26T09:42:08.206Z,1.00
2023-03-26T09:45:16.908Z,1.70
2023-03-26T09:48:05.420Z,1.10
2023-03-26T09:50:43.836Z,1.23
2023-03-26T09:53:36.669Z,1.17
2023-03-26T09:56:17.243Z,1.30
2023-03-26T09:59:14.486Z,0.97
2023-03-26T10:01:47.711Z,1.23
2023-03-26T10:05:00.563Z,1.20
2023-03-26T10:07:50.244Z,1.43
2023-03-26T10:10:27.840Z,1.20
2023-03-26T10:13:14.038Z,1.47
2023-03-26T10:16:06.571Z,1.17
2023-03-26T10:18:46.110Z,1.00
2023-03-26T10:21:25.662Z,1.00
2023-03-26T10:24:16.543Z,1.30
2023-03-26T10:27:08.572Z,1.60
2023-03-26T10:30:09.562Z,1.53
2023-03-26T10:32:47.485Z,1.80
2023-03-26T10:35:27.065Z,1.20
2023-03-26T10:38:16.647Z,1.57
2023-03-26T10:40:55.377Z,1.30
2023-03-26T10:43:49.763Z,1.50
2023-03-26T10:47:06.789Z,1.00
2023-03-26T10:49:55.525Z,0.90
2023-03-26T10:52:26.120Z,1.30
2023-03-26T10:54:57.652Z,1.50
2023-03-26T10:57:38.451Z,1.17
2023-03-26T11:00:16.463Z,1.43
2023-03-26T11:02:55.742Z,1.47
2023-03-26T11:05:45.556Z,1.10
2023-03-26T11:08:20.008Z,1.27
2023-03-26T11:11:05.757Z,1.00
2023-03-26T11:13:44.439Z,1.40
2023-03-26T11:16:20.596Z,1.23
2023-03-26T11:18:58.338Z,0.87
2023-03-26T11:21:31.477Z,0.73
2023-03-26T11:24:24.451Z,1.23
2023-03-26T11:26:56.430Z,1.03
2023-03-26T11:29:45.183Z,1.20
2023-03-26T11:32:15.946Z,0.83
2023-03-26T11:34:50.256Z,1.10
2023-03-26T11:37:25.001Z,0.90
2023-03-26T11:39:56.987Z,1.00
2023-03-26T11:42:26.491Z,0.70
2023-03-26T11:44:56.806Z,0.80
2023-03-26T11:47:31.948Z,0.70
2023-03-26T11:50:02.932Z,0.60
2023-03-26T11:52:30.939Z,0.87
2023-03-26T11:54:59.332Z,1.00
2023-03-26T11:57:31.010Z,0.50
2023-03-26T12:00:04.300Z,1.33
2023-03-26T12:02:39.371Z,0.60
2023-03-26T12:05:19.191Z,0.60
2023-03-26T12:07:53.277Z,0.60
2023-03-26T12:10:31.901Z,0.57
2023-03-26T12:13:02.577Z,0.70
2023-03-26T12:15:32.029Z,0.60
2023-03-26T12:18:18.358Z,0.60
2023-03-26T12:20:48.116Z,0.60
2023-03-26T12:23:39.217Z,0.50
2023-03-26T12:26:15.812Z,1.50
2023-03-26T12:28:48.248Z,0.80
2023-03-26T12:31:19.187Z,0.60
2023-03-26T12:34:05.872Z,0.93
2023-03-26T12:36:36.127Z,0.70
2023-03-26T12:40:08.168Z,0.70
2023-03-26T12:44:45.986Z,0.80
2023-03-26T12:45:15.660Z,0.70
2023-03-26T12:48:01.203Z,0.80
2023-03-26T12:50:44.795Z,0.77
2023-03-26T12:53:45.369Z,0.93
2023-03-26T12:56:21.533Z,0.93
2023-03-26T12:59:12.869Z,1.00
2023-03-26T13:01:51.696Z,0.93
2023-03-26T13:05:04.255Z,0.87
2023-03-26T13:07:44.606Z,0.90
2023-03-26T13:10:37.664Z,0.80
2023-03-26T13:13:21.385Z,0.90
2023-03-26T13:15:52.779Z,1.00
2023-03-26T13:18:32.085Z,0.80
2023-03-26T13:21:08.104Z,1.00
2023-03-26T13:23:43.839Z,0.83
2023-03-26T13:26:23.408Z,0.87
2023-03-26T13:29:04.192Z,0.93
2023-03-26T13:31:36.709Z,1.07
2023-03-26T13:34:16.085Z,0.77
2023-03-26T13:36:53.060Z,1.20
2023-03-26T13:39:28.846Z,0.80
2023-03-26T13:42:21.699Z,0.63
2023-03-26T13:45:05.815Z,0.70
2023-03-26T13:47:39.116Z,0.80
2023-03-26T13:50:19.744Z,0.50
2023-03-26T13:52:52.147Z,0.57
2023-03-26T13:55:26.984Z,0.70
2023-03-26T13:58:03.002Z,0.70
2023-03-26T14:00:47.639Z,0.77
2023-03-26T14:03:21.664Z,0.60
2023-03-26T14:05:52.885Z,0.50
2023-03-26T14:08:26.419Z,0.70
2023-03-26T14:10:57.672Z,0.80
2023-03-26T14:13:31.413Z,0.70
2023-03-26T14:16:05.033Z,0.60
2023-03-26T14:18:39.935Z,0.60
2023-03-26T14:21:23.978Z,0.60
2023-03-26T14:24:18.980Z,0.60
2023-03-26T14:27:10.759Z,1.23
2023-03-26T14:30:04.301Z,0.50
2023-03-26T14:32:46.259Z,0.60
2023-03-26T14:35:33.539Z,0.60
2023-03-26T14:38:33.582Z,0.70
2023-03-26T14:41:14.186Z,0.60
2023-03-26T14:44:08.825Z,0.63
2023-03-26T14:46:52.959Z,0.50
2023-03-26T14:49:43.652Z,0.60
2023-03-26T14:52:17.052Z,0.60
2023-03-26T14:54:47.078Z,0.60
2023-03-26T14:57:55.311Z,0.50
2023-03-26T15:00:44.618Z,0.80
2023-03-26T15:03:55.700Z,0.70
2023-03-26T15:06:58.330Z,0.60
2023-03-26T15:10:17.113Z,0.80
2023-03-26T15:12:59.228Z,1.20
2023-03-26T15:16:05.000Z,0.93
2023-03-26T15:19:05.334Z,1.07
2023-03-26T15:22:13.037Z,1.20
2023-03-26T15:25:39.747Z,1.57
2023-03-26T15:28:46.559Z,2.40
2023-03-26T15:31:48.939Z,1.40
2023-03-26T15:35:04.061Z,1.03
2023-03-26T15:38:09.262Z,1.20
2023-03-26T15:40:54.501Z,2.10
2023-03-26T15:43:22.783Z,1.30
2023-03-26T15:45:54.620Z,1.40
2023-03-26T15:48:43.966Z,1.47
2023-03-26T15:51:46.582Z,1.10
2023-03-26T15:54:26.571Z,1.50
2023-03-26T15:57:16.535Z,1.70
2023-03-26T15:59:57.386Z,1.10
2023-03-26T16:02:36.277Z,0.93
2023-03-26T16:05:28.026Z,0.70
2023-03-26T16:08:04.316Z,0.93
2023-03-26T16:10:44.584Z,0.60
2023-03-26T16:13:33.458Z,0.70
2023-03-26T16:16:22.475Z,0.80
2023-03-26T16:18:56.341Z,0.70
2023-03-26T16:21:45.767Z,0.70
2023-03-26T16:24:26.890Z,0.80
2023-03-26T16:27:26.699Z,0.60
2023-03-26T16:30:26.594Z,0.50
2023-03-26T16:32:56.582Z,0.90
2023-03-26T16:35:40.051Z,0.60
2023-03-26T16:38:12.701Z,0.70
2023-03-26T16:41:00.394Z,0.50
2023-03-26T16:43:53.836Z,0.60
2023-03-26T16:46:31.855Z,0.60
2023-03-26T16:49:10.431Z,0.60
2023-03-26T16:51:55.958Z,0.77
2023-03-26T16:54:29.038Z,0.83
2023-03-26T16:57:02.732Z,0.60
2023-03-26T17:00:05.642Z,0.90
2023-03-26T17:02:47.914Z,0.60
2023-03-26T17:05:21.269Z,0.87
2023-03-26T17:07:54.951Z,0.67
2023-03-26T17:10:31.899Z,0.70
2023-03-26T17:13:06.436Z,0.83
2023-03-26T17:15:45.987Z,0.93
2023-03-26T17:18:25.556Z,0.60
2023-03-26T17:21:01.861Z,0.67
2023-03-26T17:23:46.472Z,0.60
2023-03-26T17:26:22.532Z,0.60
2023-03-26T17:29:27.121Z,0.80
2023-03-26T17:32:03.148Z,0.60
2023-03-26T17:35:02.040Z,0.70
2023-03-26T17:37:40.854Z,0.80
2023-03-26T17:40:46.975Z,0.60
2023-03-26T17:43:46.041Z,0.50
2023-03-26T17:46:26.292Z,0.50
2023-03-26T17:49:00.313Z,0.70
2023-03-26T17:51:40.110Z,0.77
2023-03-26T17:54:14.521Z,0.60
2023-03-26T17:56:43.215Z,0.60
2023-03-26T17:59:23.107Z,0.90
2023-03-26T18:01:55.300Z,0.50
2023-03-26T18:04:32.537Z,0.70
2023-03-26T18:07:18.825Z,0.60
2023-03-26T18:10:00.563Z,0.70
2023-03-26T18:12:44.987Z,0.60
2023-03-26T18:15:30.559Z,0.57
2023-03-26T18:18:10.403Z,0.50
2023-03-26T18:20:42.590Z,0.50
2023-03-26T18:23:13.100Z,0.60
2023-03-26T18:25:41.400Z,0.70
2023-03-26T18:28:14.755Z,0.70
2023-03-26T18:30:47.292Z,0.60
2023-03-26T18:33:16.613Z,0.70
2023-03-26T18:35:50.593Z,0.60
2023-03-26T18:38:35.882Z,0.53
2023-03-26T18:41:07.981Z,0.60
2023-03-26T18:43:43.854Z,0.50
2023-03-26T18:46:14.375Z,0.57
2023-03-26T18:48:42.753Z,0.50
2023-03-26T18:51:12.082Z,0.60
2023-03-26T18:53:46.220Z,0.60
2023-03-26T18:56:28.315Z,0.70
2023-03-26T18:58:58.932Z,0.57
2023-03-26T19:01:31.368Z,0.60
2023-03-26T19:04:02.103Z,0.60
2023-03-26T19:06:35.655Z,0.50
2023-03-26T19:09:13.522Z,0.50
2023-03-26T19:11:49.908Z,0.60
2023-03-26T19:14:19.188Z,0.83
2023-03-26T19:16:50.337Z,0.57
2023-03-26T19:19:22.872Z,0.97
2023-03-26T19:21:52.446Z,0.50
2023-03-26T19:24:22.472Z,0.60
2023-03-26T19:26:50.782Z,0.70
2023-03-26T19:29:22.596Z,0.60
2023-03-26T19:31:52.580Z,0.40
2023-03-26T19:34:27.219Z,0.90
2023-03-26T19:36:59.450Z,0.57
2023-03-26T19:39:39.370Z,0.60
2023-03-26T19:42:13.337Z,0.53
2023-03-26T19:44:42.267Z,0.60
2023-03-26T19:47:17.998Z,0.60
2023-03-26T19:49:52.839Z,0.73
2023-03-26T19:52:26.870Z,0.50
2023-03-26T19:55:01.184Z,0.67
2023-03-26T19:57:31.010Z,0.70
2023-03-26T19:59:59.317Z,0.60
2023-03-26T20:02:27.980Z,0.80
2023-03-26T20:04:55.781Z,0.63
2023-03-26T20:07:35.355Z,0.60
2023-03-26T20:10:05.259Z,0.70
2023-03-26T20:12:33.089Z,0.70
2023-03-26T20:15:01.593Z,0.70
2023-03-26T20:17:30.687Z,0.50
2023-03-26T20:19:59.611Z,0.70
2023-03-26T20:22:29.353Z,0.70
2023-03-26T20:24:57.135Z,0.50
2023-03-26T20:27:24.921Z,0.70
2023-03-26T20:29:53.326Z,0.50
2023-03-26T20:32:25.569Z,0.60
2023-03-26T20:34:54.878Z,0.70
2023-03-26T20:37:22.821Z,0.80
2023-03-26T20:39:51.950Z,0.67
2023-03-26T20:42:19.711Z,0.60
2023-03-26T20:44:47.457Z,0.67
2023-03-26T20:47:15.346Z,0.50
2023-03-26T20:49:43.208Z,0.50
2023-03-26T20:52:14.089Z,0.50
2023-03-26T20:54:41.967Z,0.50
2023-03-26T20:57:13.194Z,0.50
2023-03-26T20:59:41.909Z,0.60
2023-03-26T21:02:12.887Z,0.70
2023-03-26T21:04:41.392Z,0.70
2023-03-26T21:07:17.482Z,0.60
2023-03-26T21:09:47.173Z,0.50
2023-03-26T21:12:27.493Z,0.50
2023-03-26T21:14:56.048Z,0.60
2023-03-26T21:17:25.096Z,0.50
2023-03-26T21:19:53.450Z,0.60
2023-03-26T21:22:31.306Z,0.50
2023-03-26T21:25:10.237Z,0.60
2023-03-26T21:27:49.090Z,0.50
2023-03-26T21:30:18.012Z,0.63
2023-03-26T21:32:49.469Z,0.50
2023-03-26T21:35:18.357Z,0.47
2023-03-26T21:37:48.627Z,0.70
2023-03-26T21:40:18.099Z,0.73
2023-03-26T21:42:49.469Z,0.67
2023-03-26T21:45:18.871Z,0.73
2023-03-26T21:47:47.739Z,0.50
2023-03-26T21:50:17.967Z,0.63
2023-03-26T21:52:48.250Z,0.80
2023-03-26T21:55:18.562Z,0.50
2023-03-26T21:58:18.476Z,0.60
2023-03-26T22:00:55.181Z,0.63
2023-03-26T22:03:28.809Z,0.50
2023-03-26T22:06:03.098Z,0.63
2023-03-26T22:08:35.779Z,0.57
2023-03-26T22:11:03.676Z,0.60
2023-03-26T22:13:35.357Z,0.50
2023-03-26T22:16:03.384Z,0.57
2023-03-26T22:18:32.705Z,0.57
2023-03-26T22:21:01.908Z,0.50
2023-03-26T22:23:36.274Z,0.60
2023-03-26T22:26:05.097Z,0.60
2023-03-26T22:28:34.338Z,0.53
2023-03-26T22:31:08.247Z,0.87
2023-03-26T22:33:36.874Z,0.60
2023-03-26T22:36:05.193Z,0.50
2023-03-26T22:38:53.498Z,0.53
2023-03-26T22:41:21.518Z,0.60
2023-03-26T22:43:52.039Z,0.60
2023-03-26T22:46:20.257Z,0.70
2023-03-26T22:48:49.347Z,0.60
2023-03-26T22:51:17.525Z,0.60
2023-03-26T22:53:48.969Z,0.60
2023-03-26T22:56:17.111Z,0.50
2023-03-26T23:01:24.011Z,0.50
2023-03-26T23:03:52.852Z,0.67
2023-03-26T23:06:21.123Z,0.67
2023-03-26T23:08:48.932Z,0.60
2023-03-26T23:11:18.434Z,0.50
2023-03-26T23:13:47.578Z,0.50
2023-03-26T23:16:17.691Z,0.50
2023-03-26T23:18:47.148Z,0.60
2023-03-26T23:21:16.147Z,0.60
2023-03-26T23:23:43.921Z,0.63
2023-03-26T23:26:11.778Z,0.53
2023-03-26T23:28:40.854Z,0.63
2023-03-26T23:31:11.926Z,0.50
2023-03-26T23:33:45.463Z,0.60
2023-03-26T23:36:17.543Z,0.60
2023-03-26T23:38:47.550Z,0.40
2023-03-26T23:41:16.566Z,0.90
2023-03-26T23:43:54.707Z,0.63
2023-03-26T23:46:24.293Z,0.53
2023-03-26T23:48:53.006Z,0.80
2023-03-26T23:51:23.866Z,0.70
2023-03-26T23:53:52.694Z,0.70
2023-03-26T23:56:20.900Z,0.67
2023-03-26T23:58:49.555Z,0.70
